sensor_id;sensor_type;location;lat;lon;timestamp;P1;durP1;ratioP1;P2;durP2;ratioP2
31990;SDS011;18508;49.386;8.370;2022-07-23T00:00:56;14.32;;;9.25;;
31990;SDS011;18508;49.386;8.370;2022-07-23T00:03:25;13.82;;;8.45;;
31990;SDS011;18508;49.386;8.370;2022-07-23T00:05:53;10.32;;;8.52;;
31990;SDS011;18508;49.386;8.370;2022-07-23T00:08:21;11.88;;;8.77;;
31990;SDS011;18508;49.386;8.370;2022-07-23T00:10:50;10.20;;;8.05;;
31990;SDS011;18508;49.386;8.370;2022-07-23T00:13:18;11.00;;;8.48;;
31990;SDS011;18508;49.386;8.370;2022-07-23T00:15:46;10.73;;;8.50;;
31990;SDS011;18508;49.386;8.370;2022-07-23T00:18:16;12.75;;;8.60;;
31990;SDS011;18508;49.386;8.370;2022-07-23T00:20:47;10.85;;;7.45;;
31990;SDS011;18508;49.386;8.370;2022-07-23T00:23:16;12.68;;;8.68;;
31990;SDS011;18508;49.386;8.370;2022-07-23T00:25:46;14.55;;;9.18;;
31990;SDS011;18508;49.386;8.370;2022-07-23T00:28:14;11.70;;;8.60;;
31990;SDS011;18508;49.386;8.370;2022-07-23T00:30:42;13.85;;;8.55;;
31990;SDS011;18508;49.386;8.370;2022-07-23T00:33:11;12.82;;;8.38;;
31990;SDS011;18508;49.386;8.370;2022-07-23T00:35:40;11.35;;;8.90;;
31990;SDS011;18508;49.386;8.370;2022-07-23T00:38:10;12.85;;;8.70;;
31990;SDS011;18508;49.386;8.370;2022-07-23T00:40:38;10.98;;;8.15;;
31990;SDS011;18508;49.386;8.370;2022-07-23T00:43:07;13.27;;;8.68;;
31990;SDS011;18508;49.386;8.370;2022-07-23T00:45:35;13.05;;;8.77;;
31990;SDS011;18508;49.386;8.370;2022-07-23T00:48:03;13.23;;;9.20;;
31990;SDS011;18508;49.386;8.370;2022-07-23T00:50:31;11.20;;;8.93;;
31990;SDS011;18508;49.386;8.370;2022-07-23T00:53:01;11.98;;;8.80;;
31990;SDS011;18508;49.386;8.370;2022-07-23T00:55:29;11.70;;;8.80;;
31990;SDS011;18508;49.386;8.370;2022-07-23T00:57:57;12.98;;;9.00;;
31990;SDS011;18508;49.386;8.370;2022-07-23T01:00:26;13.52;;;8.82;;
31990;SDS011;18508;49.386;8.370;2022-07-23T01:02:54;16.10;;;9.02;;
31990;SDS011;18508;49.386;8.370;2022-07-23T01:05:22;10.80;;;8.60;;
31990;SDS011;18508;49.386;8.370;2022-07-23T01:07:51;11.20;;;8.65;;
31990;SDS011;18508;49.386;8.370;2022-07-23T01:10:23;17.23;;;8.35;;
31990;SDS011;18508;49.386;8.370;2022-07-23T01:13:01;15.93;;;8.73;;
31990;SDS011;18508;49.386;8.370;2022-07-23T01:15:31;16.80;;;9.32;;
31990;SDS011;18508;49.386;8.370;2022-07-23T01:18:03;11.93;;;9.05;;
31990;SDS011;18508;49.386;8.370;2022-07-23T01:20:32;14.70;;;8.82;;
31990;SDS011;18508;49.386;8.370;2022-07-23T01:23:02;12.80;;;8.68;;
31990;SDS011;18508;49.386;8.370;2022-07-23T01:25:30;11.93;;;8.50;;
31990;SDS011;18508;49.386;8.370;2022-07-23T01:27:58;11.52;;;9.30;;
31990;SDS011;18508;49.386;8.370;2022-07-23T01:30:27;11.43;;;8.95;;
31990;SDS011;18508;49.386;8.370;2022-07-23T01:32:55;11.43;;;8.90;;
31990;SDS011;18508;49.386;8.370;2022-07-23T01:35:23;13.30;;;8.93;;
31990;SDS011;18508;49.386;8.370;2022-07-23T01:37:50;13.43;;;9.15;;
31990;SDS011;18508;49.386;8.370;2022-07-23T01:40:20;13.98;;;9.63;;
31990;SDS011;18508;49.386;8.370;2022-07-23T01:42:49;11.88;;;9.82;;
31990;SDS011;18508;49.386;8.370;2022-07-23T01:45:18;12.48;;;9.60;;
31990;SDS011;18508;49.386;8.370;2022-07-23T01:47:46;10.30;;;8.55;;
31990;SDS011;18508;49.386;8.370;2022-07-23T01:50:15;13.13;;;9.10;;
31990;SDS011;18508;49.386;8.370;2022-07-23T01:52:43;16.50;;;9.88;;
31990;SDS011;18508;49.386;8.370;2022-07-23T01:55:11;13.20;;;9.90;;
31990;SDS011;18508;49.386;8.370;2022-07-23T01:57:45;13.68;;;10.30;;
31990;SDS011;18508;49.386;8.370;2022-07-23T02:00:13;11.68;;;9.65;;
31990;SDS011;18508;49.386;8.370;2022-07-23T02:02:42;12.98;;;10.18;;
31990;SDS011;18508;49.386;8.370;2022-07-23T02:05:10;16.13;;;9.90;;
31990;SDS011;18508;49.386;8.370;2022-07-23T02:07:38;14.00;;;10.23;;
31990;SDS011;18508;49.386;8.370;2022-07-23T02:10:06;13.18;;;9.48;;
31990;SDS011;18508;49.386;8.370;2022-07-23T02:12:35;16.67;;;10.38;;
31990;SDS011;18508;49.386;8.370;2022-07-23T02:15:05;15.18;;;9.48;;
31990;SDS011;18508;49.386;8.370;2022-07-23T02:17:35;13.73;;;10.30;;
31990;SDS011;18508;49.386;8.370;2022-07-23T02:20:04;15.48;;;10.48;;
31990;SDS011;18508;49.386;8.370;2022-07-23T02:22:33;14.50;;;9.77;;
31990;SDS011;18508;49.386;8.370;2022-07-23T02:25:02;13.48;;;9.93;;
31990;SDS011;18508;49.386;8.370;2022-07-23T02:27:30;16.02;;;10.80;;
31990;SDS011;18508;49.386;8.370;2022-07-23T02:29:58;16.55;;;10.80;;
31990;SDS011;18508;49.386;8.370;2022-07-23T02:32:28;18.35;;;10.63;;
31990;SDS011;18508;49.386;8.370;2022-07-23T02:34:56;15.63;;;9.75;;
31990;SDS011;18508;49.386;8.370;2022-07-23T02:37:24;10.90;;;8.77;;
31990;SDS011;18508;49.386;8.370;2022-07-23T02:39:53;17.00;;;9.50;;
31990;SDS011;18508;49.386;8.370;2022-07-23T02:42:21;12.07;;;8.70;;
31990;SDS011;18508;49.386;8.370;2022-07-23T02:44:50;10.77;;;8.70;;
31990;SDS011;18508;49.386;8.370;2022-07-23T02:47:18;12.65;;;9.02;;
31990;SDS011;18508;49.386;8.370;2022-07-23T02:49:48;11.40;;;9.68;;
31990;SDS011;18508;49.386;8.370;2022-07-23T02:52:17;34.78;;;10.50;;
31990;SDS011;18508;49.386;8.370;2022-07-23T02:54:45;13.25;;;9.73;;
31990;SDS011;18508;49.386;8.370;2022-07-23T02:57:14;13.10;;;8.52;;
31990;SDS011;18508;49.386;8.370;2022-07-23T02:59:42;13.27;;;8.77;;
31990;SDS011;18508;49.386;8.370;2022-07-23T03:02:11;13.57;;;9.20;;
31990;SDS011;18508;49.386;8.370;2022-07-23T03:04:39;17.00;;;9.02;;
31990;SDS011;18508;49.386;8.370;2022-07-23T03:07:10;10.45;;;8.73;;
31990;SDS011;18508;49.386;8.370;2022-07-23T03:09:38;12.23;;;9.65;;
31990;SDS011;18508;49.386;8.370;2022-07-23T03:12:07;11.93;;;8.48;;
31990;SDS011;18508;49.386;8.370;2022-07-23T03:14:39;11.45;;;8.40;;
31990;SDS011;18508;49.386;8.370;2022-07-23T03:17:10;12.40;;;9.07;;
31990;SDS011;18508;49.386;8.370;2022-07-23T03:19:39;11.95;;;8.85;;
31990;SDS011;18508;49.386;8.370;2022-07-23T03:22:07;13.55;;;8.50;;
31990;SDS011;18508;49.386;8.370;2022-07-23T03:24:37;10.23;;;8.45;;
31990;SDS011;18508;49.386;8.370;2022-07-23T03:27:24;12.30;;;8.77;;
31990;SDS011;18508;49.386;8.370;2022-07-23T03:29:55;12.13;;;8.95;;
31990;SDS011;18508;49.386;8.370;2022-07-23T03:32:25;12.52;;;8.90;;
31990;SDS011;18508;49.386;8.370;2022-07-23T03:34:53;14.38;;;9.13;;
31990;SDS011;18508;49.386;8.370;2022-07-23T03:37:28;11.55;;;8.90;;
31990;SDS011;18508;49.386;8.370;2022-07-23T03:40:00;13.80;;;8.63;;
31990;SDS011;18508;49.386;8.370;2022-07-23T03:42:28;12.77;;;9.30;;
31990;SDS011;18508;49.386;8.370;2022-07-23T03:44:57;12.98;;;8.85;;
31990;SDS011;18508;49.386;8.370;2022-07-23T03:47:25;11.02;;;8.90;;
31990;SDS011;18508;49.386;8.370;2022-07-23T03:49:54;11.10;;;8.57;;
31990;SDS011;18508;49.386;8.370;2022-07-23T03:52:23;9.82;;;8.60;;
31990;SDS011;18508;49.386;8.370;2022-07-23T03:54:51;11.68;;;9.40;;
31990;SDS011;18508;49.386;8.370;2022-07-23T03:57:21;12.27;;;9.05;;
31990;SDS011;18508;49.386;8.370;2022-07-23T03:59:51;12.18;;;8.82;;
31990;SDS011;18508;49.386;8.370;2022-07-23T04:02:19;11.18;;;9.35;;
31990;SDS011;18508;49.386;8.370;2022-07-23T04:04:48;12.77;;;9.65;;
31990;SDS011;18508;49.386;8.370;2022-07-23T04:07:16;13.80;;;10.05;;
31990;SDS011;18508;49.386;8.370;2022-07-23T04:09:45;12.15;;;10.13;;
31990;SDS011;18508;49.386;8.370;2022-07-23T04:12:13;13.75;;;10.63;;
31990;SDS011;18508;49.386;8.370;2022-07-23T04:14:43;15.48;;;9.48;;
31990;SDS011;18508;49.386;8.370;2022-07-23T04:17:12;13.43;;;9.93;;
31990;SDS011;18508;49.386;8.370;2022-07-23T04:19:40;13.40;;;11.05;;
31990;SDS011;18508;49.386;8.370;2022-07-23T04:22:10;14.82;;;10.25;;
31990;SDS011;18508;49.386;8.370;2022-07-23T04:24:38;13.32;;;10.25;;
31990;SDS011;18508;49.386;8.370;2022-07-23T04:27:07;12.70;;;9.75;;
31990;SDS011;18508;49.386;8.370;2022-07-23T04:29:35;16.30;;;10.55;;
31990;SDS011;18508;49.386;8.370;2022-07-23T04:32:06;14.40;;;10.02;;
31990;SDS011;18508;49.386;8.370;2022-07-23T04:34:35;15.57;;;10.18;;
31990;SDS011;18508;49.386;8.370;2022-07-23T04:37:06;12.80;;;10.30;;
31990;SDS011;18508;49.386;8.370;2022-07-23T04:39:34;15.35;;;10.32;;
31990;SDS011;18508;49.386;8.370;2022-07-23T04:42:05;14.70;;;11.18;;
31990;SDS011;18508;49.386;8.370;2022-07-23T04:44:35;15.60;;;11.18;;
31990;SDS011;18508;49.386;8.370;2022-07-23T04:47:05;15.52;;;10.93;;
31990;SDS011;18508;49.386;8.370;2022-07-23T04:49:34;18.63;;;11.55;;
31990;SDS011;18508;49.386;8.370;2022-07-23T04:52:05;13.70;;;11.30;;
31990;SDS011;18508;49.386;8.370;2022-07-23T04:54:33;16.15;;;12.18;;
31990;SDS011;18508;49.386;8.370;2022-07-23T04:57:01;18.23;;;13.40;;
31990;SDS011;18508;49.386;8.370;2022-07-23T04:59:30;17.98;;;13.48;;
31990;SDS011;18508;49.386;8.370;2022-07-23T05:02:02;17.92;;;13.90;;
31990;SDS011;18508;49.386;8.370;2022-07-23T05:04:31;21.38;;;13.52;;
31990;SDS011;18508;49.386;8.370;2022-07-23T05:07:09;21.23;;;14.68;;
31990;SDS011;18508;49.386;8.370;2022-07-23T05:09:39;19.23;;;14.18;;
31990;SDS011;18508;49.386;8.370;2022-07-23T05:12:17;22.48;;;14.73;;
31990;SDS011;18508;49.386;8.370;2022-07-23T05:14:46;16.42;;;11.32;;
31990;SDS011;18508;49.386;8.370;2022-07-23T05:17:17;20.65;;;14.75;;
31990;SDS011;18508;49.386;8.370;2022-07-23T05:19:53;18.10;;;12.73;;
31990;SDS011;18508;49.386;8.370;2022-07-23T05:22:26;19.02;;;13.40;;
31990;SDS011;18508;49.386;8.370;2022-07-23T05:24:59;20.17;;;13.65;;
31990;SDS011;18508;49.386;8.370;2022-07-23T05:27:31;23.20;;;14.48;;
31990;SDS011;18508;49.386;8.370;2022-07-23T05:29:59;21.40;;;14.50;;
31990;SDS011;18508;49.386;8.370;2022-07-23T05:32:30;18.77;;;14.00;;
31990;SDS011;18508;49.386;8.370;2022-07-23T05:35:06;21.00;;;15.35;;
31990;SDS011;18508;49.386;8.370;2022-07-23T05:37:41;24.15;;;15.27;;
31990;SDS011;18508;49.386;8.370;2022-07-23T05:40:15;21.05;;;14.27;;
31990;SDS011;18508;49.386;8.370;2022-07-23T05:42:44;17.20;;;13.75;;
31990;SDS011;18508;49.386;8.370;2022-07-23T05:45:16;18.88;;;13.65;;
31990;SDS011;18508;49.386;8.370;2022-07-23T05:47:45;20.05;;;13.23;;
31990;SDS011;18508;49.386;8.370;2022-07-23T05:50:17;18.77;;;12.95;;
31990;SDS011;18508;49.386;8.370;2022-07-23T05:52:45;18.40;;;13.75;;
31990;SDS011;18508;49.386;8.370;2022-07-23T05:55:20;17.13;;;12.82;;
31990;SDS011;18508;49.386;8.370;2022-07-23T05:57:51;19.02;;;13.32;;
31990;SDS011;18508;49.386;8.370;2022-07-23T06:00:19;22.80;;;12.77;;
31990;SDS011;18508;49.386;8.370;2022-07-23T06:02:47;16.33;;;12.45;;
31990;SDS011;18508;49.386;8.370;2022-07-23T06:05:22;15.60;;;12.18;;
31990;SDS011;18508;49.386;8.370;2022-07-23T06:07:50;15.63;;;12.07;;
31990;SDS011;18508;49.386;8.370;2022-07-23T06:10:19;18.80;;;13.20;;
31990;SDS011;18508;49.386;8.370;2022-07-23T06:12:52;16.85;;;12.50;;
31990;SDS011;18508;49.386;8.370;2022-07-23T06:15:27;17.88;;;13.38;;
31990;SDS011;18508;49.386;8.370;2022-07-23T06:17:56;18.88;;;13.55;;
31990;SDS011;18508;49.386;8.370;2022-07-23T06:20:26;20.85;;;14.98;;
31990;SDS011;18508;49.386;8.370;2022-07-23T06:22:54;18.67;;;14.90;;
31990;SDS011;18508;49.386;8.370;2022-07-23T06:25:23;19.30;;;14.77;;
31990;SDS011;18508;49.386;8.370;2022-07-23T06:27:51;20.33;;;13.23;;
31990;SDS011;18508;49.386;8.370;2022-07-23T06:30:22;19.85;;;13.82;;
31990;SDS011;18508;49.386;8.370;2022-07-23T06:32:51;22.08;;;15.30;;
31990;SDS011;18508;49.386;8.370;2022-07-23T06:35:19;20.13;;;14.38;;
31990;SDS011;18508;49.386;8.370;2022-07-23T06:37:49;19.15;;;14.10;;
31990;SDS011;18508;49.386;8.370;2022-07-23T06:40:17;19.50;;;14.27;;
31990;SDS011;18508;49.386;8.370;2022-07-23T06:42:46;18.90;;;13.55;;
31990;SDS011;18508;49.386;8.370;2022-07-23T06:45:15;17.27;;;14.02;;
31990;SDS011;18508;49.386;8.370;2022-07-23T06:47:43;23.10;;;14.38;;
31990;SDS011;18508;49.386;8.370;2022-07-23T06:50:12;19.63;;;14.07;;
31990;SDS011;18508;49.386;8.370;2022-07-23T06:52:40;21.23;;;14.18;;
31990;SDS011;18508;49.386;8.370;2022-07-23T06:55:11;21.15;;;15.18;;
31990;SDS011;18508;49.386;8.370;2022-07-23T06:57:41;16.48;;;12.57;;
31990;SDS011;18508;49.386;8.370;2022-07-23T07:00:12;15.68;;;12.48;;
31990;SDS011;18508;49.386;8.370;2022-07-23T07:02:41;19.48;;;13.63;;
31990;SDS011;18508;49.386;8.370;2022-07-23T07:05:10;17.92;;;11.82;;
31990;SDS011;18508;49.386;8.370;2022-07-23T07:07:38;20.15;;;12.95;;
31990;SDS011;18508;49.386;8.370;2022-07-23T07:10:07;16.08;;;12.15;;
31990;SDS011;18508;49.386;8.370;2022-07-23T07:12:42;19.45;;;12.57;;
31990;SDS011;18508;49.386;8.370;2022-07-23T07:15:11;17.55;;;12.82;;
31990;SDS011;18508;49.386;8.370;2022-07-23T07:17:40;18.17;;;13.32;;
31990;SDS011;18508;49.386;8.370;2022-07-23T07:20:09;17.25;;;13.05;;
31990;SDS011;18508;49.386;8.370;2022-07-23T07:22:38;15.23;;;11.95;;
31990;SDS011;18508;49.386;8.370;2022-07-23T07:25:07;19.08;;;13.52;;
31990;SDS011;18508;49.386;8.370;2022-07-23T07:27:36;20.27;;;13.32;;
31990;SDS011;18508;49.386;8.370;2022-07-23T07:30:06;18.35;;;12.93;;
31990;SDS011;18508;49.386;8.370;2022-07-23T07:32:36;15.88;;;12.50;;
31990;SDS011;18508;49.386;8.370;2022-07-23T07:35:22;19.10;;;12.88;;
31990;SDS011;18508;49.386;8.370;2022-07-23T07:37:50;18.52;;;12.65;;
31990;SDS011;18508;49.386;8.370;2022-07-23T07:40:19;16.85;;;12.98;;
31990;SDS011;18508;49.386;8.370;2022-07-23T07:42:48;16.85;;;12.70;;
31990;SDS011;18508;49.386;8.370;2022-07-23T07:45:21;19.02;;;13.40;;
31990;SDS011;18508;49.386;8.370;2022-07-23T07:47:50;17.77;;;13.18;;
31990;SDS011;18508;49.386;8.370;2022-07-23T07:50:19;14.63;;;12.02;;
31990;SDS011;18508;49.386;8.370;2022-07-23T07:52:49;16.48;;;12.95;;
31990;SDS011;18508;49.386;8.370;2022-07-23T07:55:17;18.55;;;12.80;;
31990;SDS011;18508;49.386;8.370;2022-07-23T07:57:49;18.10;;;13.68;;
31990;SDS011;18508;49.386;8.370;2022-07-23T08:00:19;17.00;;;13.55;;
31990;SDS011;18508;49.386;8.370;2022-07-23T08:02:50;18.05;;;14.60;;
31990;SDS011;18508;49.386;8.370;2022-07-23T08:05:22;19.52;;;13.25;;
31990;SDS011;18508;49.386;8.370;2022-07-23T08:07:53;18.23;;;13.65;;
31990;SDS011;18508;49.386;8.370;2022-07-23T08:10:25;18.30;;;13.57;;
31990;SDS011;18508;49.386;8.370;2022-07-23T08:12:55;17.65;;;12.10;;
31990;SDS011;18508;49.386;8.370;2022-07-23T08:15:26;20.38;;;13.65;;
31990;SDS011;18508;49.386;8.370;2022-07-23T08:17:55;21.10;;;14.90;;
31990;SDS011;18508;49.386;8.370;2022-07-23T08:20:24;17.90;;;14.27;;
31990;SDS011;18508;49.386;8.370;2022-07-23T08:22:55;19.05;;;14.05;;
31990;SDS011;18508;49.386;8.370;2022-07-23T08:25:25;20.52;;;15.43;;
31990;SDS011;18508;49.386;8.370;2022-07-23T08:30:28;20.20;;;14.50;;
31990;SDS011;18508;49.386;8.370;2022-07-23T08:32:58;19.00;;;14.13;;
31990;SDS011;18508;49.386;8.370;2022-07-23T08:35:28;17.65;;;13.82;;
31990;SDS011;18508;49.386;8.370;2022-07-23T08:37:58;19.33;;;14.30;;
31990;SDS011;18508;49.386;8.370;2022-07-23T08:40:28;16.60;;;13.68;;
31990;SDS011;18508;49.386;8.370;2022-07-23T08:42:58;19.38;;;14.32;;
31990;SDS011;18508;49.386;8.370;2022-07-23T08:45:28;16.98;;;13.07;;
31990;SDS011;18508;49.386;8.370;2022-07-23T08:47:57;17.00;;;13.15;;
31990;SDS011;18508;49.386;8.370;2022-07-23T08:50:28;18.93;;;13.03;;
31990;SDS011;18508;49.386;8.370;2022-07-23T08:52:56;17.05;;;13.30;;
31990;SDS011;18508;49.386;8.370;2022-07-23T08:55:28;16.03;;;11.97;;
31990;SDS011;18508;49.386;8.370;2022-07-23T08:57:56;17.27;;;12.00;;
31990;SDS011;18508;49.386;8.370;2022-07-23T09:00:24;19.23;;;14.52;;
31990;SDS011;18508;49.386;8.370;2022-07-23T09:02:54;17.60;;;12.65;;
31990;SDS011;18508;49.386;8.370;2022-07-23T09:05:22;15.10;;;12.68;;
31990;SDS011;18508;49.386;8.370;2022-07-23T09:08:04;20.33;;;12.98;;
31990;SDS011;18508;49.386;8.370;2022-07-23T09:10:45;17.50;;;13.88;;
31990;SDS011;18508;49.386;8.370;2022-07-23T09:13:25;16.55;;;12.07;;
31990;SDS011;18508;49.386;8.370;2022-07-23T09:18:29;19.20;;;13.57;;
31990;SDS011;18508;49.386;8.370;2022-07-23T09:21:05;16.88;;;12.90;;
31990;SDS011;18508;49.386;8.370;2022-07-23T09:23:37;18.35;;;13.82;;
31990;SDS011;18508;49.386;8.370;2022-07-23T09:26:20;17.80;;;13.85;;
31990;SDS011;18508;49.386;8.370;2022-07-23T09:29:01;16.70;;;13.73;;
31990;SDS011;18508;49.386;8.370;2022-07-23T09:31:41;19.75;;;13.40;;
31990;SDS011;18508;49.386;8.370;2022-07-23T09:34:13;18.48;;;13.95;;
31990;SDS011;18508;49.386;8.370;2022-07-23T09:36:43;17.83;;;13.18;;
31990;SDS011;18508;49.386;8.370;2022-07-23T09:39:12;16.75;;;14.18;;
31990;SDS011;18508;49.386;8.370;2022-07-23T09:41:44;19.10;;;14.63;;
31990;SDS011;18508;49.386;8.370;2022-07-23T09:44:14;17.40;;;13.60;;
31990;SDS011;18508;49.386;8.370;2022-07-23T09:46:44;27.35;;;15.05;;
31990;SDS011;18508;49.386;8.370;2022-07-23T09:49:15;29.85;;;14.93;;
31990;SDS011;18508;49.386;8.370;2022-07-23T09:51:49;20.50;;;15.18;;
31990;SDS011;18508;49.386;8.370;2022-07-23T09:54:22;17.88;;;13.30;;
31990;SDS011;18508;49.386;8.370;2022-07-23T09:56:54;22.45;;;14.10;;
31990;SDS011;18508;49.386;8.370;2022-07-23T09:59:24;19.15;;;13.93;;
31990;SDS011;18508;49.386;8.370;2022-07-23T10:01:54;20.73;;;15.63;;
31990;SDS011;18508;49.386;8.370;2022-07-23T10:04:24;16.67;;;14.05;;
31990;SDS011;18508;49.386;8.370;2022-07-23T10:06:54;17.55;;;14.40;;
31990;SDS011;18508;49.386;8.370;2022-07-23T10:09:24;20.70;;;14.38;;
31990;SDS011;18508;49.386;8.370;2022-07-23T10:11:55;17.70;;;13.80;;
31990;SDS011;18508;49.386;8.370;2022-07-23T10:14:42;16.30;;;13.73;;
31990;SDS011;18508;49.386;8.370;2022-07-23T10:17:10;18.95;;;14.75;;
31990;SDS011;18508;49.386;8.370;2022-07-23T10:19:40;18.42;;;14.93;;
31990;SDS011;18508;49.386;8.370;2022-07-23T10:22:10;17.38;;;14.35;;
31990;SDS011;18508;49.386;8.370;2022-07-23T10:24:46;16.83;;;13.45;;
31990;SDS011;18508;49.386;8.370;2022-07-23T10:27:38;17.45;;;12.80;;
31990;SDS011;18508;49.386;8.370;2022-07-23T10:30:20;18.70;;;15.07;;
31990;SDS011;18508;49.386;8.370;2022-07-23T10:32:59;19.65;;;14.23;;
31990;SDS011;18508;49.386;8.370;2022-07-23T10:35:42;19.55;;;15.25;;
31990;SDS011;18508;49.386;8.370;2022-07-23T10:38:20;16.27;;;14.30;;
31990;SDS011;18508;49.386;8.370;2022-07-23T10:40:56;15.15;;;12.65;;
31990;SDS011;18508;49.386;8.370;2022-07-23T10:43:25;16.02;;;12.60;;
31990;SDS011;18508;49.386;8.370;2022-07-23T10:45:55;17.60;;;13.70;;
31990;SDS011;18508;49.386;8.370;2022-07-23T10:48:24;16.05;;;13.38;;
31990;SDS011;18508;49.386;8.370;2022-07-23T10:51:07;14.57;;;11.77;;
31990;SDS011;18508;49.386;8.370;2022-07-23T10:53:58;15.73;;;12.60;;
31990;SDS011;18508;49.386;8.370;2022-07-23T11:02:44;17.08;;;13.02;;
31990;SDS011;18508;49.386;8.370;2022-07-23T11:05:14;14.55;;;12.77;;
31990;SDS011;18508;49.386;8.370;2022-07-23T11:10:45;14.10;;;11.88;;
31990;SDS011;18508;49.386;8.370;2022-07-23T11:16:13;14.60;;;11.63;;
31990;SDS011;18508;49.386;8.370;2022-07-23T11:18:55;14.32;;;10.25;;
31990;SDS011;18508;49.386;8.370;2022-07-23T11:21:44;13.57;;;11.35;;
31990;SDS011;18508;49.386;8.370;2022-07-23T11:24:18;14.18;;;10.60;;
31990;SDS011;18508;49.386;8.370;2022-07-23T11:26:52;15.20;;;11.40;;
31990;SDS011;18508;49.386;8.370;2022-07-23T11:35:18;13.60;;;10.90;;
31990;SDS011;18508;49.386;8.370;2022-07-23T11:40:21;12.32;;;10.95;;
31990;SDS011;18508;49.386;8.370;2022-07-23T11:42:53;13.73;;;11.18;;
31990;SDS011;18508;49.386;8.370;2022-07-23T11:45:24;12.70;;;11.23;;
31990;SDS011;18508;49.386;8.370;2022-07-23T11:47:54;11.00;;;9.75;;
31990;SDS011;18508;49.386;8.370;2022-07-23T11:50:23;13.05;;;10.32;;
31990;SDS011;18508;49.386;8.370;2022-07-23T11:52:52;12.55;;;10.23;;
31990;SDS011;18508;49.386;8.370;2022-07-23T11:55:22;11.10;;;9.05;;
31990;SDS011;18508;49.386;8.370;2022-07-23T11:57:50;11.65;;;10.45;;
31990;SDS011;18508;49.386;8.370;2022-07-23T12:00:20;12.50;;;10.65;;
31990;SDS011;18508;49.386;8.370;2022-07-23T12:02:50;14.25;;;10.30;;
31990;SDS011;18508;49.386;8.370;2022-07-23T12:05:20;11.55;;;10.25;;
31990;SDS011;18508;49.386;8.370;2022-07-23T12:07:51;12.93;;;10.27;;
31990;SDS011;18508;49.386;8.370;2022-07-23T12:10:21;11.65;;;9.80;;
31990;SDS011;18508;49.386;8.370;2022-07-23T12:12:52;10.85;;;9.75;;
31990;SDS011;18508;49.386;8.370;2022-07-23T12:15:22;13.27;;;10.50;;
31990;SDS011;18508;49.386;8.370;2022-07-23T12:17:52;13.25;;;9.27;;
31990;SDS011;18508;49.386;8.370;2022-07-23T12:20:21;12.90;;;10.18;;
31990;SDS011;18508;49.386;8.370;2022-07-23T12:22:51;11.63;;;9.45;;
31990;SDS011;18508;49.386;8.370;2022-07-23T12:25:22;12.65;;;9.90;;
31990;SDS011;18508;49.386;8.370;2022-07-23T12:27:58;12.63;;;10.13;;
31990;SDS011;18508;49.386;8.370;2022-07-23T12:30:31;12.43;;;10.55;;
31990;SDS011;18508;49.386;8.370;2022-07-23T12:33:00;11.55;;;10.35;;
31990;SDS011;18508;49.386;8.370;2022-07-23T12:35:36;12.13;;;9.85;;
31990;SDS011;18508;49.386;8.370;2022-07-23T12:38:07;11.18;;;9.85;;
31990;SDS011;18508;49.386;8.370;2022-07-23T12:40:42;14.85;;;11.07;;
31990;SDS011;18508;49.386;8.370;2022-07-23T12:43:12;11.25;;;10.07;;
31990;SDS011;18508;49.386;8.370;2022-07-23T12:45:47;15.18;;;10.23;;
31990;SDS011;18508;49.386;8.370;2022-07-23T12:48:17;15.18;;;9.77;;
31990;SDS011;18508;49.386;8.370;2022-07-23T12:50:48;10.23;;;8.63;;
31990;SDS011;18508;49.386;8.370;2022-07-23T12:53:22;10.73;;;8.88;;
31990;SDS011;18508;49.386;8.370;2022-07-23T12:55:58;10.88;;;8.75;;
31990;SDS011;18508;49.386;8.370;2022-07-23T12:58:41;11.38;;;9.02;;
31990;SDS011;18508;49.386;8.370;2022-07-23T13:01:23;10.02;;;8.43;;
31990;SDS011;18508;49.386;8.370;2022-07-23T13:04:00;10.63;;;8.88;;
31990;SDS011;18508;49.386;8.370;2022-07-23T13:06:39;10.85;;;8.57;;
31990;SDS011;18508;49.386;8.370;2022-07-23T13:09:10;12.05;;;9.55;;
31990;SDS011;18508;49.386;8.370;2022-07-23T13:11:42;10.40;;;9.25;;
31990;SDS011;18508;49.386;8.370;2022-07-23T13:14:13;14.20;;;9.00;;
31990;SDS011;18508;49.386;8.370;2022-07-23T13:16:45;10.23;;;9.13;;
31990;SDS011;18508;49.386;8.370;2022-07-23T13:19:14;12.23;;;9.65;;
31990;SDS011;18508;49.386;8.370;2022-07-23T13:21:47;11.48;;;9.48;;
31990;SDS011;18508;49.386;8.370;2022-07-23T13:24:15;10.43;;;9.43;;
31990;SDS011;18508;49.386;8.370;2022-07-23T13:26:46;11.88;;;9.65;;
31990;SDS011;18508;49.386;8.370;2022-07-23T13:29:17;11.07;;;8.73;;
31990;SDS011;18508;49.386;8.370;2022-07-23T13:31:46;10.95;;;9.40;;
31990;SDS011;18508;49.386;8.370;2022-07-23T13:34:16;11.15;;;9.85;;
31990;SDS011;18508;49.386;8.370;2022-07-23T13:36:47;11.07;;;8.93;;
31990;SDS011;18508;49.386;8.370;2022-07-23T13:39:15;10.68;;;9.23;;
31990;SDS011;18508;49.386;8.370;2022-07-23T13:41:43;10.20;;;8.82;;
31990;SDS011;18508;49.386;8.370;2022-07-23T13:44:17;10.77;;;9.02;;
31990;SDS011;18508;49.386;8.370;2022-07-23T13:46:48;14.38;;;9.68;;
31990;SDS011;18508;49.386;8.370;2022-07-23T13:49:16;11.27;;;9.88;;
31990;SDS011;18508;49.386;8.370;2022-07-23T13:51:47;12.73;;;9.25;;
31990;SDS011;18508;49.386;8.370;2022-07-23T13:54:33;10.10;;;9.00;;
31990;SDS011;18508;49.386;8.370;2022-07-23T13:57:01;11.52;;;9.60;;
31990;SDS011;18508;49.386;8.370;2022-07-23T13:59:32;10.95;;;9.75;;
31990;SDS011;18508;49.386;8.370;2022-07-23T14:02:00;10.65;;;9.55;;
31990;SDS011;18508;49.386;8.370;2022-07-23T14:04:47;10.60;;;9.32;;
31990;SDS011;18508;49.386;8.370;2022-07-23T14:07:16;12.20;;;10.00;;
31990;SDS011;18508;49.386;8.370;2022-07-23T14:09:46;9.40;;;8.40;;
31990;SDS011;18508;49.386;8.370;2022-07-23T14:12:14;11.23;;;9.40;;
31990;SDS011;18508;49.386;8.370;2022-07-23T14:14:44;10.15;;;9.10;;
31990;SDS011;18508;49.386;8.370;2022-07-23T14:17:13;9.70;;;8.55;;
31990;SDS011;18508;49.386;8.370;2022-07-23T14:19:42;10.07;;;9.05;;
31990;SDS011;18508;49.386;8.370;2022-07-23T14:22:11;10.68;;;9.30;;
31990;SDS011;18508;49.386;8.370;2022-07-23T14:24:39;10.95;;;8.98;;
31990;SDS011;18508;49.386;8.370;2022-07-23T14:27:08;10.93;;;7.88;;
31990;SDS011;18508;49.386;8.370;2022-07-23T14:29:36;12.88;;;8.10;;
31990;SDS011;18508;49.386;8.370;2022-07-23T14:32:08;9.32;;;8.40;;
31990;SDS011;18508;49.386;8.370;2022-07-23T14:34:36;10.52;;;8.48;;
31990;SDS011;18508;49.386;8.370;2022-07-23T14:37:04;10.77;;;9.05;;
31990;SDS011;18508;49.386;8.370;2022-07-23T14:39:32;9.90;;;8.55;;
31990;SDS011;18508;49.386;8.370;2022-07-23T14:42:01;9.98;;;8.30;;
31990;SDS011;18508;49.386;8.370;2022-07-23T14:44:29;14.55;;;8.82;;
31990;SDS011;18508;49.386;8.370;2022-07-23T14:46:58;9.73;;;8.05;;
31990;SDS011;18508;49.386;8.370;2022-07-23T14:49:29;8.32;;;7.53;;
31990;SDS011;18508;49.386;8.370;2022-07-23T14:51:57;9.07;;;8.05;;
31990;SDS011;18508;49.386;8.370;2022-07-23T14:54:25;9.05;;;8.15;;
31990;SDS011;18508;49.386;8.370;2022-07-23T14:56:55;10.02;;;8.45;;
31990;SDS011;18508;49.386;8.370;2022-07-23T14:59:24;8.32;;;7.53;;
31990;SDS011;18508;49.386;8.370;2022-07-23T15:01:53;8.60;;;7.68;;
31990;SDS011;18508;49.386;8.370;2022-07-23T15:04:22;8.80;;;7.72;;
31990;SDS011;18508;49.386;8.370;2022-07-23T15:07:04;9.70;;;8.07;;
31990;SDS011;18508;49.386;8.370;2022-07-23T15:09:35;9.13;;;8.23;;
31990;SDS011;18508;49.386;8.370;2022-07-23T15:12:07;8.88;;;7.75;;
31990;SDS011;18508;49.386;8.370;2022-07-23T15:14:38;11.05;;;8.63;;